sensor_id;sensor_type;location;lat;lon;timestamp;temperature;humidity
50738;DHT22;36703;48.154;17.126;2023-12-14T00:00:21;9.80;81.00
50738;DHT22;36703;48.154;17.126;2023-12-14T00:04:23;10.00;81.40
50738;DHT22;36703;48.154;17.126;2023-12-14T00:08:25;9.80;82.10
50738;DHT22;36703;48.154;17.126;2023-12-14T00:12:26;10.00;82.20
50738;DHT22;36703;48.154;17.126;2023-12-14T00:16:28;10.00;82.10
50738;DHT22;36703;48.154;17.126;2023-12-14T00:20:29;9.80;82.10
50738;DHT22;36703;48.154;17.126;2023-12-14T00:24:30;10.10;82.40
50738;DHT22;36703;48.154;17.126;2023-12-14T00:28:32;10.00;82.40
50738;DHT22;36703;48.154;17.126;2023-12-14T00:32:33;9.90;82.10
50738;DHT22;36703;48.154;17.126;2023-12-14T00:36:35;9.90;80.40
50738;DHT22;36703;48.154;17.126;2023-12-14T00:40:36;10.30;82.10
50738;DHT22;36703;48.154;17.126;2023-12-14T00:44:38;10.20;80.40
50738;DHT22;36703;48.154;17.126;2023-12-14T00:48:39;10.30;82.10
50738;DHT22;36703;48.154;17.126;2023-12-14T00:52:41;10.40;82.20
50738;DHT22;36703;48.154;17.126;2023-12-14T00:56:42;10.20;81.90
50738;DHT22;36703;48.154;17.126;2023-12-14T01:00:43;10.10;81.70
50738;DHT22;36703;48.154;17.126;2023-12-14T01:04:45;10.20;82.00
50738;DHT22;36703;48.154;17.126;2023-12-14T01:08:46;10.40;81.90
50738;DHT22;36703;48.154;17.126;2023-12-14T01:12:47;9.60;81.20
50738;DHT22;36703;48.154;17.126;2023-12-14T01:16:49;10.20;81.90
50738;DHT22;36703;48.154;17.126;2023-12-14T01:20:50;10.20;82.10
50738;DHT22;36703;48.154;17.126;2023-12-14T01:24:52;10.10;81.60
50738;DHT22;36703;48.154;17.126;2023-12-14T01:28:53;10.10;82.00
50738;DHT22;36703;48.154;17.126;2023-12-14T01:32:54;10.10;82.20
50738;DHT22;36703;48.154;17.126;2023-12-14T01:36:56;10.20;82.60
50738;DHT22;36703;48.154;17.126;2023-12-14T01:40:57;10.20;82.00
50738;DHT22;36703;48.154;17.126;2023-12-14T01:45:00;10.30;82.10
50738;DHT22;36703;48.154;17.126;2023-12-14T01:49:01;10.30;82.00
50738;DHT22;36703;48.154;17.126;2023-12-14T01:53:03;10.30;82.40
50738;DHT22;36703;48.154;17.126;2023-12-14T01:57:04;9.90;81.60
50738;DHT22;36703;48.154;17.126;2023-12-14T02:01:13;10.20;82.20
50738;DHT22;36703;48.154;17.126;2023-12-14T02:05:17;10.20;81.20
50738;DHT22;36703;48.154;17.126;2023-12-14T02:09:18;10.20;82.20
50738;DHT22;36703;48.154;17.126;2023-12-14T02:13:22;10.30;80.70
50738;DHT22;36703;48.154;17.126;2023-12-14T02:17:24;10.40;82.10
50738;DHT22;36703;48.154;17.126;2023-12-14T02:21:25;10.60;82.20
50738;DHT22;36703;48.154;17.126;2023-12-14T02:25:27;10.70;81.70
50738;DHT22;36703;48.154;17.126;2023-12-14T02:29:28;10.60;82.10
50738;DHT22;36703;48.154;17.126;2023-12-14T02:33:30;10.70;82.10
50738;DHT22;36703;48.154;17.126;2023-12-14T02:37:31;10.00;81.70
50738;DHT22;36703;48.154;17.126;2023-12-14T02:41:33;10.90;81.50
50738;DHT22;36703;48.154;17.126;2023-12-14T02:45:34;10.60;82.10
50738;DHT22;36703;48.154;17.126;2023-12-14T02:49:35;10.90;82.40
50738;DHT22;36703;48.154;17.126;2023-12-14T02:53:37;10.30;82.00
50738;DHT22;36703;48.154;17.126;2023-12-14T02:57:38;10.40;80.70
50738;DHT22;36703;48.154;17.126;2023-12-14T03:01:40;9.90;81.60
50738;DHT22;36703;48.154;17.126;2023-12-14T03:05:41;10.60;82.00
50738;DHT22;36703;48.154;17.126;2023-12-14T03:09:42;10.50;82.00
50738;DHT22;36703;48.154;17.126;2023-12-14T03:13:45;10.60;82.00
50738;DHT22;36703;48.154;17.126;2023-12-14T03:17:46;10.40;82.20
50738;DHT22;36703;48.154;17.126;2023-12-14T03:21:48;10.80;82.60
50738;DHT22;36703;48.154;17.126;2023-12-14T03:25:49;10.40;82.00
50738;DHT22;36703;48.154;17.126;2023-12-14T03:29:50;10.20;82.20
50738;DHT22;36703;48.154;17.126;2023-12-14T03:33:52;10.40;82.30
50738;DHT22;36703;48.154;17.126;2023-12-14T03:37:53;10.20;82.20
50738;DHT22;36703;48.154;17.126;2023-12-14T03:41:54;10.30;82.20
50738;DHT22;36703;48.154;17.126;2023-12-14T03:45:56;10.30;82.30
50738;DHT22;36703;48.154;17.126;2023-12-14T03:49:57;10.30;82.20
50738;DHT22;36703;48.154;17.126;2023-12-14T03:53:59;10.20;82.10
50738;DHT22;36703;48.154;17.126;2023-12-14T03:58:00;10.20;82.30
50738;DHT22;36703;48.154;17.126;2023-12-14T04:02:02;10.20;82.30
50738;DHT22;36703;48.154;17.126;2023-12-14T04:06:03;10.10;82.50
50738;DHT22;36703;48.154;17.126;2023-12-14T04:10:05;10.10;81.60
50738;DHT22;36703;48.154;17.126;2023-12-14T04:14:10;10.20;81.80
50738;DHT22;36703;48.154;17.126;2023-12-14T04:18:11;10.30;82.50
50738;DHT22;36703;48.154;17.126;2023-12-14T04:22:12;10.30;82.40
50738;DHT22;36703;48.154;17.126;2023-12-14T04:26:14;10.40;82.40
50738;DHT22;36703;48.154;17.126;2023-12-14T04:30:15;10.50;82.10
50738;DHT22;36703;48.154;17.126;2023-12-14T04:34:17;10.50;82.20
50738;DHT22;36703;48.154;17.126;2023-12-14T04:38:20;10.60;81.90
50738;DHT22;36703;48.154;17.126;2023-12-14T04:42:21;10.60;81.40
50738;DHT22;36703;48.154;17.126;2023-12-14T04:46:23;10.60;81.70
50738;DHT22;36703;48.154;17.126;2023-12-14T04:50:24;10.80;82.20
50738;DHT22;36703;48.154;17.126;2023-12-14T04:54:26;10.60;81.90
50738;DHT22;36703;48.154;17.126;2023-12-14T04:58:27;10.50;82.00
50738;DHT22;36703;48.154;17.126;2023-12-14T05:02:30;10.30;81.80
50738;DHT22;36703;48.154;17.126;2023-12-14T05:06:32;10.60;81.10
50738;DHT22;36703;48.154;17.126;2023-12-14T05:10:35;10.60;81.70
50738;DHT22;36703;48.154;17.126;2023-12-14T05:14:36;10.50;82.10
50738;DHT22;36703;48.154;17.126;2023-12-14T05:18:37;10.30;80.30
50738;DHT22;36703;48.154;17.126;2023-12-14T05:22:39;10.50;82.00
50738;DHT22;36703;48.154;17.126;2023-12-14T05:26:40;10.60;82.20
50738;DHT22;36703;48.154;17.126;2023-12-14T05:30:41;10.50;82.10
50738;DHT22;36703;48.154;17.126;2023-12-14T05:34:43;10.60;81.80
50738;DHT22;36703;48.154;17.126;2023-12-14T05:38:45;10.60;82.10
50738;DHT22;36703;48.154;17.126;2023-12-14T05:42:46;10.60;82.10
50738;DHT22;36703;48.154;17.126;2023-12-14T05:46:50;10.40;80.30
50738;DHT22;36703;48.154;17.126;2023-12-14T05:50:51;10.50;82.00
50738;DHT22;36703;48.154;17.126;2023-12-14T05:54:53;10.60;81.60
50738;DHT22;36703;48.154;17.126;2023-12-14T05:58:54;10.50;81.70
50738;DHT22;36703;48.154;17.126;2023-12-14T06:02:56;10.50;81.70
50738;DHT22;36703;48.154;17.126;2023-12-14T06:06:57;10.70;81.80
50738;DHT22;36703;48.154;17.126;2023-12-14T06:10:59;10.60;81.60
50738;DHT22;36703;48.154;17.126;2023-12-14T06:15:00;11.20;82.10
50738;DHT22;36703;48.154;17.126;2023-12-14T06:19:01;10.40;81.60
50738;DHT22;36703;48.154;17.126;2023-12-14T06:23:03;10.70;81.70
50738;DHT22;36703;48.154;17.126;2023-12-14T06:27:04;10.70;81.50
50738;DHT22;36703;48.154;17.126;2023-12-14T06:31:05;11.00;81.90
50738;DHT22;36703;48.154;17.126;2023-12-14T06:35:07;10.60;81.60
50738;DHT22;36703;48.154;17.126;2023-12-14T06:39:08;10.50;81.30
50738;DHT22;36703;48.154;17.126;2023-12-14T06:43:10;10.60;81.40
50738;DHT22;36703;48.154;17.126;2023-12-14T06:47:11;10.60;81.60
50738;DHT22;36703;48.154;17.126;2023-12-14T06:51:14;10.70;81.30
50738;DHT22;36703;48.154;17.126;2023-12-14T06:55:16;10.70;81.60
50738;DHT22;36703;48.154;17.126;2023-12-14T06:59:17;10.40;81.30
50738;DHT22;36703;48.154;17.126;2023-12-14T07:03:18;10.70;81.70
50738;DHT22;36703;48.154;17.126;2023-12-14T07:07:20;10.70;81.70
50738;DHT22;36703;48.154;17.126;2023-12-14T07:11:21;10.70;81.50
50738;DHT22;36703;48.154;17.126;2023-12-14T07:15:23;10.80;81.40
50738;DHT22;36703;48.154;17.126;2023-12-14T07:19:25;10.80;80.50
50738;DHT22;36703;48.154;17.126;2023-12-14T07:23:26;10.80;81.40
50738;DHT22;36703;48.154;17.126;2023-12-14T07:27:28;10.90;80.60
50738;DHT22;36703;48.154;17.126;2023-12-14T07:31:30;10.80;81.20
50738;DHT22;36703;48.154;17.126;2023-12-14T07:35:32;10.90;80.90
50738;DHT22;36703;48.154;17.126;2023-12-14T07:39:36;10.70;79.40
50738;DHT22;36703;48.154;17.126;2023-12-14T07:43:38;10.80;80.40
50738;DHT22;36703;48.154;17.126;2023-12-14T07:47:39;10.90;81.10
50738;DHT22;36703;48.154;17.126;2023-12-14T07:51:43;11.20;81.00
50738;DHT22;36703;48.154;17.126;2023-12-14T07:55:44;10.10;80.80
50738;DHT22;36703;48.154;17.126;2023-12-14T07:59:46;10.70;81.10
50738;DHT22;36703;48.154;17.126;2023-12-14T08:03:47;10.90;80.90
50738;DHT22;36703;48.154;17.126;2023-12-14T08:07:48;11.00;81.10
50738;DHT22;36703;48.154;17.126;2023-12-14T08:11:53;11.00;80.70
50738;DHT22;36703;48.154;17.126;2023-12-14T08:15:54;11.10;81.10
50738;DHT22;36703;48.154;17.126;2023-12-14T08:19:55;11.00;81.00
50738;DHT22;36703;48.154;17.126;2023-12-14T08:23:57;10.80;81.00
50738;DHT22;36703;48.154;17.126;2023-12-14T08:27:58;10.90;80.50
50738;DHT22;36703;48.154;17.126;2023-12-14T08:32:00;11.10;81.10
50738;DHT22;36703;48.154;17.126;2023-12-14T08:36:01;10.90;80.60
50738;DHT22;36703;48.154;17.126;2023-12-14T08:40:04;10.80;80.50
50738;DHT22;36703;48.154;17.126;2023-12-14T08:44:07;10.90;80.00
50738;DHT22;36703;48.154;17.126;2023-12-14T08:48:08;11.00;80.10
50738;DHT22;36703;48.154;17.126;2023-12-14T08:52:10;10.80;79.30
50738;DHT22;36703;48.154;17.126;2023-12-14T08:56:12;11.00;80.90
50738;DHT22;36703;48.154;17.126;2023-12-14T09:00:14;11.00;81.20
50738;DHT22;36703;48.154;17.126;2023-12-14T09:04:15;10.70;80.20
50738;DHT22;36703;48.154;17.126;2023-12-14T09:08:17;11.10;80.90
50738;DHT22;36703;48.154;17.126;2023-12-14T09:12:18;11.20;81.20
50738;DHT22;36703;48.154;17.126;2023-12-14T09:16:20;10.80;80.50
50738;DHT22;36703;48.154;17.126;2023-12-14T09:20:21;11.30;79.70
50738;DHT22;36703;48.154;17.126;2023-12-14T09:24:22;11.30;79.80
50738;DHT22;36703;48.154;17.126;2023-12-14T09:28:24;11.30;79.40
50738;DHT22;36703;48.154;17.126;2023-12-14T09:32:26;10.60;77.90
50738;DHT22;36703;48.154;17.126;2023-12-14T09:36:28;11.50;79.10
50738;DHT22;36703;48.154;17.126;2023-12-14T09:40:29;11.20;79.10
50738;DHT22;36703;48.154;17.126;2023-12-14T09:44:31;11.90;78.70
50738;DHT22;36703;48.154;17.126;2023-12-14T09:48:33;11.50;78.20
50738;DHT22;36703;48.154;17.126;2023-12-14T09:52:34;11.80;78.80
50738;DHT22;36703;48.154;17.126;2023-12-14T09:56:35;10.70;78.30
50738;DHT22;36703;48.154;17.126;2023-12-14T10:00:47;11.50;77.50
50738;DHT22;36703;48.154;17.126;2023-12-14T10:04:48;11.60;78.20
50738;DHT22;36703;48.154;17.126;2023-12-14T10:08:56;12.00;78.70
50738;DHT22;36703;48.154;17.126;2023-12-14T10:12:57;11.50;77.40
50738;DHT22;36703;48.154;17.126;2023-12-14T10:16:59;12.40;78.80
50738;DHT22;36703;48.154;17.126;2023-12-14T10:21:15;11.90;77.40
50738;DHT22;36703;48.154;17.126;2023-12-14T10:25:19;12.60;78.50
50738;DHT22;36703;48.154;17.126;2023-12-14T10:29:21;11.50;76.40
50738;DHT22;36703;48.154;17.126;2023-12-14T10:33:22;12.40;77.80
50738;DHT22;36703;48.154;17.126;2023-12-14T10:37:23;11.80;77.40
50738;DHT22;36703;48.154;17.126;2023-12-14T10:41:26;12.50;77.00
50738;DHT22;36703;48.154;17.126;2023-12-14T10:45:31;12.10;76.70
50738;DHT22;36703;48.154;17.126;2023-12-14T10:49:34;12.60;77.00
50738;DHT22;36703;48.154;17.126;2023-12-14T10:53:36;12.10;76.40
50738;DHT22;36703;48.154;17.126;2023-12-14T10:57:38;12.50;76.20
50738;DHT22;36703;48.154;17.126;2023-12-14T11:01:40;12.40;75.20
50738;DHT22;36703;48.154;17.126;2023-12-14T11:05:41;13.40;76.70
50738;DHT22;36703;48.154;17.126;2023-12-14T11:09:44;12.60;75.60
50738;DHT22;36703;48.154;17.126;2023-12-14T11:13:46;14.00;74.90
50738;DHT22;36703;48.154;17.126;2023-12-14T11:22:22;13.80;74.50
50738;DHT22;36703;48.154;17.126;2023-12-14T11:26:24;13.50;74.30
50738;DHT22;36703;48.154;17.126;2023-12-14T11:30:26;14.30;77.20
50738;DHT22;36703;48.154;17.126;2023-12-14T11:34:27;14.50;71.00
50738;DHT22;36703;48.154;17.126;2023-12-14T11:38:29;14.70;70.70
50738;DHT22;36703;48.154;17.126;2023-12-14T11:42:31;15.00;69.50
50738;DHT22;36703;48.154;17.126;2023-12-14T11:46:33;15.30;70.50
50738;DHT22;36703;48.154;17.126;2023-12-14T11:50:36;15.30;71.10
50738;DHT22;36703;48.154;17.126;2023-12-14T11:54:38;15.60;70.30
50738;DHT22;36703;48.154;17.126;2023-12-14T11:58:43;15.70;74.60
50738;DHT22;36703;48.154;17.126;2023-12-14T12:02:45;16.50;72.50
50738;DHT22;36703;48.154;17.126;2023-12-14T12:06:47;16.10;69.10
50738;DHT22;36703;48.154;17.126;2023-12-14T12:10:49;15.90;68.60
50738;DHT22;36703;48.154;17.126;2023-12-14T12:14:51;15.80;68.20
50738;DHT22;36703;48.154;17.126;2023-12-14T12:18:53;15.80;68.60
50738;DHT22;36703;48.154;17.126;2023-12-14T12:22:55;15.70;69.30
50738;DHT22;36703;48.154;17.126;2023-12-14T12:26:56;15.70;67.30
50738;DHT22;36703;48.154;17.126;2023-12-14T12:30:58;15.80;68.10
50738;DHT22;36703;48.154;17.126;2023-12-14T12:35:00;16.10;68.30
50738;DHT22;36703;48.154;17.126;2023-12-14T12:39:02;15.90;68.30
50738;DHT22;36703;48.154;17.126;2023-12-14T12:43:04;15.90;67.70
50738;DHT22;36703;48.154;17.126;2023-12-14T12:47:05;16.10;67.70
50738;DHT22;36703;48.154;17.126;2023-12-14T12:51:07;16.10;67.70
50738;DHT22;36703;48.154;17.126;2023-12-14T12:55:08;16.20;67.00
50738;DHT22;36703;48.154;17.126;2023-12-14T12:59:10;16.20;66.40
50738;DHT22;36703;48.154;17.126;2023-12-14T13:03:11;16.20;66.30
50738;DHT22;36703;48.154;17.126;2023-12-14T13:07:13;16.00;66.10
50738;DHT22;36703;48.154;17.126;2023-12-14T13:11:15;16.20;65.90
50738;DHT22;36703;48.154;17.126;2023-12-14T13:15:16;16.10;66.20
50738;DHT22;36703;48.154;17.126;2023-12-14T13:19:19;16.10;65.80
50738;DHT22;36703;48.154;17.126;2023-12-14T13:23:21;16.20;66.20
50738;DHT22;36703;48.154;17.126;2023-12-14T13:27:22;16.30;66.40
50738;DHT22;36703;48.154;17.126;2023-12-14T13:31:25;16.10;65.50
50738;DHT22;36703;48.154;17.126;2023-12-14T13:35:26;16.00;65.80
50738;DHT22;36703;48.154;17.126;2023-12-14T13:39:28;15.90;65.70
50738;DHT22;36703;48.154;17.126;2023-12-14T13:43:30;15.30;65.80
50738;DHT22;36703;48.154;17.126;2023-12-14T13:47:32;15.60;66.20
50738;DHT22;36703;48.154;17.126;2023-12-14T13:51:33;15.10;67.00
50738;DHT22;36703;48.154;17.126;2023-12-14T13:55:35;15.10;67.40
50738;DHT22;36703;48.154;17.126;2023-12-14T13:59:36;14.70;67.60
50738;DHT22;36703;48.154;17.126;2023-12-14T14:03:37;14.70;68.10
50738;DHT22;36703;48.154;17.126;2023-12-14T14:07:39;14.40;67.80
50738;DHT22;36703;48.154;17.126;2023-12-14T14:11:40;14.20;68.40
50738;DHT22;36703;48.154;17.126;2023-12-14T14:15:48;14.40;68.00
50738;DHT22;36703;48.154;17.126;2023-12-14T14:19:49;14.40;68.70
50738;DHT22;36703;48.154;17.126;2023-12-14T14:23:51;14.50;69.00
50738;DHT22;36703;48.154;17.126;2023-12-14T14:27:52;14.10;69.10
50738;DHT22;36703;48.154;17.126;2023-12-14T14:31:53;14.60;69.70
50738;DHT22;36703;48.154;17.126;2023-12-14T14:35:55;13.90;69.50
50738;DHT22;36703;48.154;17.126;2023-12-14T14:39:56;14.40;70.00
50738;DHT22;36703;48.154;17.126;2023-12-14T14:43:57;13.80;69.50
50738;DHT22;36703;48.154;17.126;2023-12-14T14:47:59;13.90;70.20
50738;DHT22;36703;48.154;17.126;2023-12-14T14:52:00;13.60;68.70
50738;DHT22;36703;48.154;17.126;2023-12-14T14:56:02;13.70;70.40
50738;DHT22;36703;48.154;17.126;2023-12-14T15:00:04;13.70;69.90
50738;DHT22;36703;48.154;17.126;2023-12-14T15:04:07;13.50;70.00
50738;DHT22;36703;48.154;17.126;2023-12-14T15:08:08;13.50;70.50
50738;DHT22;36703;48.154;17.126;2023-12-14T15:12:09;13.50;71.20
50738;DHT22;36703;48.154;17.126;2023-12-14T15:16:11;13.50;71.20
50738;DHT22;36703;48.154;17.126;2023-12-14T15:20:12;13.40;71.00
50738;DHT22;36703;48.154;17.126;2023-12-14T15:24:14;13.50;71.40
50738;DHT22;36703;48.154;17.126;2023-12-14T15:28:16;13.10;70.90
50738;DHT22;36703;48.154;17.126;2023-12-14T15:32:17;13.30;71.50
50738;DHT22;36703;48.154;17.126;2023-12-14T15:36:19;13.40;71.80
50738;DHT22;36703;48.154;17.126;2023-12-14T15:41:19;13.00;53.80
50738;DHT22;36703;48.154;17.126;2023-12-14T15:45:20;12.90;54.50
50738;DHT22;36703;48.154;17.126;2023-12-14T15:49:22;12.90;54.70
50738;DHT22;36703;48.154;17.126;2023-12-14T15:53:24;12.90;54.70
50738;DHT22;36703;48.154;17.126;2023-12-14T15:57:25;12.90;54.80
50738;DHT22;36703;48.154;17.126;2023-12-14T16:01:27;13.00;54.80
50738;DHT22;36703;48.154;17.126;2023-12-14T16:05:28;12.90;54.80
50738;DHT22;36703;48.154;17.126;2023-12-14T16:09:30;12.90;55.00
50738;DHT22;36703;48.154;17.126;2023-12-14T16:13:31;12.80;55.00
50738;DHT22;36703;48.154;17.126;2023-12-14T16:17:33;12.80;55.20
50738;DHT22;36703;48.154;17.126;2023-12-14T16:21:35;12.80;55.20
50738;DHT22;36703;48.154;17.126;2023-12-14T16:25:38;12.80;55.30
50738;DHT22;36703;48.154;17.126;2023-12-14T16:29:39;12.80;55.30
50738;DHT22;36703;48.154;17.126;2023-12-14T16:33:41;12.80;55.30
50738;DHT22;36703;48.154;17.126;2023-12-14T16:37:42;12.80;55.30
50738;DHT22;36703;48.154;17.126;2023-12-14T16:41:44;12.90;55.40
50738;DHT22;36703;48.154;17.126;2023-12-14T16:45:45;12.80;55.50
50738;DHT22;36703;48.154;17.126;2023-12-14T16:49:48;12.80;55.60
50738;DHT22;36703;48.154;17.126;2023-12-14T16:53:53;12.70;55.50
50738;DHT22;36703;48.154;17.126;2023-12-14T16:57:56;12.60;55.70
50738;DHT22;36703;48.154;17.126;2023-12-14T17:01:58;12.50;56.00
50738;DHT22;36703;48.154;17.126;2023-12-14T17:05:59;12.40;56.30
50738;DHT22;36703;48.154;17.126;2023-12-14T17:10:01;12.40;56.50
50738;DHT22;36703;48.154;17.126;2023-12-14T17:14:03;12.40;56.60
50738;DHT22;36703;48.154;17.126;2023-12-14T17:18:05;12.40;56.60
50738;DHT22;36703;48.154;17.126;2023-12-14T17:22:06;12.40;56.60
50738;DHT22;36703;48.154;17.126;2023-12-14T17:26:08;12.40;56.70
50738;DHT22;36703;48.154;17.126;2023-12-14T17:30:10;12.30;56.80
50738;DHT22;36703;48.154;17.126;2023-12-14T17:34:12;12.30;57.40
50738;DHT22;36703;48.154;17.126;2023-12-14T17:38:16;12.30;56.90
50738;DHT22;36703;48.154;17.126;2023-12-14T17:42:18;12.30;56.90
50738;DHT22;36703;48.154;17.126;2023-12-14T17:46:19;12.40;57.00
50738;DHT22;36703;48.154;17.126;2023-12-14T17:50:22;12.40;56.90
50738;DHT22;36703;48.154;17.126;2023-12-14T17:54:23;12.40;57.10
50738;DHT22;36703;48.154;17.126;2023-12-14T17:58:26;12.20;57.00
50738;DHT22;36703;48.154;17.126;2023-12-14T18:02:27;12.20;57.20
50738;DHT22;36703;48.154;17.126;2023-12-14T18:06:29;12.20;57.40
50738;DHT22;36703;48.154;17.126;2023-12-14T18:10:30;12.20;57.50
50738;DHT22;36703;48.154;17.126;2023-12-14T18:14:32;12.20;57.60
50738;DHT22;36703;48.154;17.126;2023-12-14T18:18:34;12.20;57.70
50738;DHT22;36703;48.154;17.126;2023-12-14T18:22:35;12.10;57.80
50738;DHT22;36703;48.154;17.126;2023-12-14T18:26:37;12.10;57.80
50738;DHT22;36703;48.154;17.126;2023-12-14T18:30:39;12.20;58.10
50738;DHT22;36703;48.154;17.126;2023-12-14T18:34:40;12.30;58.30
50738;DHT22;36703;48.154;17.126;2023-12-14T18:38:42;12.40;58.30
50738;DHT22;36703;48.154;17.126;2023-12-14T18:42:44;12.40;58.20
50738;DHT22;36703;48.154;17.126;2023-12-14T18:46:45;12.50;58.20
50738;DHT22;36703;48.154;17.126;2023-12-14T18:50:47;12.70;58.20
50738;DHT22;36703;48.154;17.126;2023-12-14T18:54:49;12.60;58.10
50738;DHT22;36703;48.154;17.126;2023-12-14T18:58:50;12.50;57.80
50738;DHT22;36703;48.154;17.126;2023-12-14T19:02:52;12.40;57.80
50738;DHT22;36703;48.154;17.126;2023-12-14T19:06:54;12.40;57.90
50738;DHT22;36703;48.154;17.126;2023-12-14T19:10:56;12.30;58.00
50738;DHT22;36703;48.154;17.126;2023-12-14T19:14:57;12.30;58.00
50738;DHT22;36703;48.154;17.126;2023-12-14T19:19:02;12.30;58.10
50738;DHT22;36703;48.154;17.126;2023-12-14T19:23:04;12.20;58.20
50738;DHT22;36703;48.154;17.126;2023-12-14T19:27:06;12.20;58.20
50738;DHT22;36703;48.154;17.126;2023-12-14T19:31:08;12.10;58.30
50738;DHT22;36703;48.154;17.126;2023-12-14T19:35:10;12.10;58.30
50738;DHT22;36703;48.154;17.126;2023-12-14T19:39:13;12.10;58.40
50738;DHT22;36703;48.154;17.126;2023-12-14T19:43:14;12.10;58.40
50738;DHT22;36703;48.154;17.126;2023-12-14T19:47:16;12.10;58.50
50738;DHT22;36703;48.154;17.126;2023-12-14T19:51:18;12.00;58.50
50738;DHT22;36703;48.154;17.126;2023-12-14T19:55:20;12.10;58.60
50738;DHT22;36703;48.154;17.126;2023-12-14T19:59:21;12.10;58.60
50738;DHT22;36703;48.154;17.126;2023-12-14T20:03:23;12.00;58.60
50738;DHT22;36703;48.154;17.126;2023-12-14T20:07:25;12.10;58.50
50738;DHT22;36703;48.154;17.126;2023-12-14T20:11:27;12.10;58.60
50738;DHT22;36703;48.154;17.126;2023-12-14T20:15:28;12.00;58.50
50738;DHT22;36703;48.154;17.126;2023-12-14T20:19:30;12.00;58.60
50738;DHT22;36703;48.154;17.126;2023-12-14T20:23:32;12.00;58.60
50738;DHT22;36703;48.154;17.126;2023-12-14T20:27:33;11.90;58.60
50738;DHT22;36703;48.154;17.126;2023-12-14T20:31:35;12.00;58.60
50738;DHT22;36703;48.154;17.126;2023-12-14T20:35:37;12.00;58.60
50738;DHT22;36703;48.154;17.126;2023-12-14T20:39:38;11.90;58.60
50738;DHT22;36703;48.154;17.126;2023-12-14T20:43:40;11.90;58.70
50738;DHT22;36703;48.154;17.126;2023-12-14T20:47:42;11.80;58.60
50738;DHT22;36703;48.154;17.126;2023-12-14T20:51:44;11.80;58.70
50738;DHT22;36703;48.154;17.126;2023-12-14T20:55:45;11.80;58.70
50738;DHT22;36703;48.154;17.126;2023-12-14T20:59:47;11.80;58.70
50738;DHT22;36703;48.154;17.126;2023-12-14T21:03:49;11.90;58.80
50738;DHT22;36703;48.154;17.126;2023-12-14T21:07:51;11.90;58.70
50738;DHT22;36703;48.154;17.126;2023-12-14T21:11:52;11.90;58.70
50738;DHT22;36703;48.154;17.126;2023-12-14T21:15:54;11.90;58.80
50738;DHT22;36703;48.154;17.126;2023-12-14T21:19:56;11.90;58.70
50738;DHT22;36703;48.154;17.126;2023-12-14T21:23:57;11.90;58.70
50738;DHT22;36703;48.154;17.126;2023-12-14T21:27:59;11.80;58.70
50738;DHT22;36703;48.154;17.126;2023-12-14T21:32:01;11.80;58.70
50738;DHT22;36703;48.154;17.126;2023-12-14T21:36:03;11.80;58.70
50738;DHT22;36703;48.154;17.126;2023-12-14T21:40:05;11.80;58.70
50738;DHT22;36703;48.154;17.126;2023-12-14T21:44:07;11.80;58.70
50738;DHT22;36703;48.154;17.126;2023-12-14T21:48:09;11.80;58.80
50738;DHT22;36703;48.154;17.126;2023-12-14T21:52:10;11.80;58.80
50738;DHT22;36703;48.154;17.126;2023-12-14T21:56:12;11.80;58.90
50738;DHT22;36703;48.154;17.126;2023-12-14T22:00:14;11.80;58.80
50738;DHT22;36703;48.154;17.126;2023-12-14T22:04:16;11.80;58.80
50738;DHT22;36703;48.154;17.126;2023-12-14T22:08:18;11.80;58.90
50738;DHT22;36703;48.154;17.126;2023-12-14T22:12:20;11.80;58.90
50738;DHT22;36703;48.154;17.126;2023-12-14T22:16:21;11.80;58.70
50738;DHT22;36703;48.154;17.126;2023-12-14T22:20:23;11.80;58.70
50738;DHT22;36703;48.154;17.126;2023-12-14T22:24:24;11.90;58.80
50738;DHT22;36703;48.154;17.126;2023-12-14T22:28:26;11.80;58.70
50738;DHT22;36703;48.154;17.126;2023-12-14T22:32:27;11.80;58.70
50738;DHT22;36703;48.154;17.126;2023-12-14T22:36:29;11.80;58.80
50738;DHT22;36703;48.154;17.126;2023-12-14T22:40:31;11.80;58.90
50738;DHT22;36703;48.154;17.126;2023-12-14T22:44:32;11.80;58.70
50738;DHT22;36703;48.154;17.126;2023-12-14T22:48:34;11.80;58.80
50738;DHT22;36703;48.154;17.126;2023-12-14T22:52:36;11.70;58.80
50738;DHT22;36703;48.154;17.126;2023-12-14T22:56:37;11.70;58.30
50738;DHT22;36703;48.154;17.126;2023-12-14T23:00:39;11.70;58.80
50738;DHT22;36703;48.154;17.126;2023-12-14T23:04:42;11.70;58.90
50738;DHT22;36703;48.154;17.126;2023-12-14T23:08:43;11.60;58.90
50738;DHT22;36703;48.154;17.126;2023-12-14T23:12:45;11.60;58.90
50738;DHT22;36703;48.154;17.126;2023-12-14T23:16:47;11.60;59.00
50738;DHT22;36703;48.154;17.126;2023-12-14T23:20:48;11.60;59.00
50738;DHT22;36703;48.154;17.126;2023-12-14T23:24:50;11.70;59.00
50738;DHT22;36703;48.154;17.126;2023-12-14T23:28:52;11.60;58.90
50738;DHT22;36703;48.154;17.126;2023-12-14T23:32:53;11.40;58.70
50738;DHT22;36703;48.154;17.126;2023-12-14T23:36:55;11.60;58.80
50738;DHT22;36703;48.154;17.126;2023-12-14T23:40:56;11.50;58.60
50738;DHT22;36703;48.154;17.126;2023-12-14T23:44:58;11.50;58.70
50738;DHT22;36703;48.154;17.126;2023-12-14T23:48:59;11.10;58.40
50738;DHT22;36703;48.154;17.126;2023-12-14T23:53:01;11.50;58.60
50738;DHT22;36703;48.154;17.126;2023-12-14T23:57:03;11.50;58.60
